createdAt,value
2018-11-03T00:03:20.345Z,7.4
2018-11-03T00:08:22.772Z,7.4
2018-11-03T00:13:25.201Z,7.4
2018-11-03T00:18:27.646Z,7.4
2018-11-03T00:23:30.109Z,7.4
2018-11-03T00:28:32.555Z,7.4
2018-11-03T00:33:34.974Z,7.4
2018-11-03T00:38:37.420Z,7.4
2018-11-03T00:43:39.846Z,7.3
2018-11-03T00:48:42.284Z,7.3
2018-11-03T00:53:44.833Z,7.3
2018-11-03T01:03:49.609Z,7.2
2018-11-03T01:08:52.077Z,7.2
2018-11-03T01:13:54.494Z,7.2
2018-11-03T01:18:56.944Z,7.1
2018-11-03T01:23:59.368Z,7.1
2018-11-03T01:29:01.804Z,7.1
2018-11-03T01:34:04.265Z,7.1
2018-11-03T01:39:06.690Z,7.1
2018-11-03T01:44:09.142Z,7.1
2018-11-03T01:49:11.556Z,7.1
2018-11-03T01:54:14.009Z,7.1
2018-11-03T01:59:16.442Z,7
2018-11-03T02:04:18.877Z,7
2018-11-03T02:09:21.426Z,6.9
2018-11-03T02:14:23.754Z,6.9
2018-11-03T02:19:26.212Z,6.9
2018-11-03T02:24:28.753Z,7
2018-11-03T02:29:31.078Z,7
2018-11-03T02:34:33.524Z,7
2018-11-03T02:39:35.996Z,7
2018-11-03T02:44:38.436Z,7
2018-11-03T02:49:40.846Z,7
2018-11-03T02:54:43.317Z,7.1
2018-11-03T02:59:45.731Z,7.1
2018-11-03T03:04:48.164Z,7.1
2018-11-03T03:09:50.650Z,7.1
2018-11-03T03:14:53.049Z,7.2
2018-11-03T03:19:55.537Z,7.1
2018-11-03T03:24:57.964Z,7.1
2018-11-03T03:30:00.402Z,7.1
2018-11-03T03:35:02.826Z,7.1
2018-11-03T03:40:05.252Z,7.1
2018-11-03T03:45:07.716Z,7
2018-11-03T03:50:10.133Z,7
2018-11-03T03:55:12.575Z,7
2018-11-03T04:00:15.033Z,7
2018-11-03T04:05:17.450Z,7
2018-11-03T04:10:19.889Z,7
2018-11-03T04:15:22.316Z,7
2018-11-03T04:20:24.767Z,6.9
2018-11-03T04:25:27.301Z,6.9
2018-11-03T04:30:29.797Z,6.9
2018-11-03T04:35:32.084Z,6.9
2018-11-03T04:40:34.630Z,6.9
2018-11-03T04:45:37.045Z,6.9
2018-11-03T04:50:39.394Z,6.9
2018-11-03T04:55:41.849Z,6.9
2018-11-03T05:00:44.287Z,6.9
2018-11-03T05:05:46.737Z,6.9
2018-11-03T05:10:49.166Z,6.9
2018-11-03T05:15:51.809Z,6.9
2018-11-03T05:25:56.583Z,6.9
2018-11-03T05:30:58.963Z,6.9
2018-11-03T05:36:01.536Z,6.9
2018-11-03T05:41:03.815Z,6.9
2018-11-03T05:46:06.244Z,6.9
2018-11-03T05:51:08.735Z,6.9
2018-11-03T06:01:13.649Z,6.8
2018-11-03T06:06:16.018Z,6.8
2018-11-03T06:11:18.440Z,6.8
2018-11-03T06:16:20.880Z,6.8
2018-11-03T06:21:23.324Z,6.7
2018-11-03T06:26:25.761Z,6.7
2018-11-03T06:31:28.196Z,6.6
2018-11-03T06:36:30.656Z,6.5
2018-11-03T06:41:33.069Z,6.5
2018-11-03T06:46:35.653Z,6.5
2018-11-03T06:51:37.986Z,6.5
2018-11-03T06:56:40.404Z,6.5
2018-11-03T07:01:42.857Z,6.5
2018-11-03T07:06:45.343Z,6.5
2018-11-03T07:11:47.814Z,6.5
2018-11-03T07:16:50.160Z,6.6
2018-11-03T07:21:52.817Z,6.6
2018-11-03T07:26:55.050Z,6.8
2018-11-03T07:31:57.486Z,6.9
2018-11-03T07:36:59.929Z,7
2018-11-03T07:42:02.372Z,7.1
2018-11-03T07:47:04.823Z,7.1
2018-11-03T07:52:07.255Z,7.1
2018-11-03T07:57:09.686Z,7.1
2018-11-03T08:02:12.252Z,7.2
2018-11-03T08:07:14.598Z,7.2
2018-11-03T08:12:17.023Z,7.2
2018-11-03T08:17:19.444Z,7.3
2018-11-03T08:22:21.937Z,7.4
2018-11-03T08:27:24.326Z,7.6
2018-11-03T08:32:26.768Z,7.8
2018-11-03T08:42:31.661Z,7.7
2018-11-03T08:47:34.101Z,7.7
2018-11-03T08:52:36.523Z,7.8
2018-11-03T08:57:38.966Z,7.8
2018-11-03T09:02:41.452Z,7.9
2018-11-03T09:07:43.955Z,8
2018-11-03T09:12:46.319Z,8.2
2018-11-03T09:17:48.745Z,8.3
2018-11-03T09:22:51.197Z,8.5
2018-11-03T09:27:53.624Z,8.5
2018-11-03T09:32:56.059Z,8.6
2018-11-03T09:37:58.554Z,8.7
2018-11-03T09:43:01.093Z,8.7
2018-11-03T09:48:03.373Z,8.8
2018-11-03T09:53:05.808Z,8.8
2018-11-03T09:58:08.281Z,8.8
2018-11-03T10:03:10.710Z,8.8
2018-11-03T10:08:13.127Z,8.7
2018-11-03T10:13:15.579Z,8.7
2018-11-03T10:18:18.002Z,8.7
2018-11-03T10:23:20.453Z,8.6
2018-11-03T10:28:22.887Z,8.6
2018-11-03T10:33:25.363Z,8.6
2018-11-03T10:38:27.773Z,8.6
2018-11-03T10:43:30.279Z,8.6
2018-11-03T10:48:32.651Z,8.6
2018-11-03T10:53:35.201Z,8.7
2018-11-03T10:58:37.538Z,8.7
2018-11-03T11:03:40.117Z,8.8
2018-11-03T11:08:42.421Z,8.9
2018-11-03T11:13:44.848Z,9
2018-11-03T11:18:47.358Z,9
2018-11-03T11:23:49.765Z,9
2018-11-03T11:28:52.187Z,9.1
2018-11-03T11:33:54.615Z,9.1
2018-11-03T11:38:57.053Z,9.1
2018-11-03T11:43:59.520Z,9.1
2018-11-03T11:49:01.956Z,9.2
2018-11-03T11:54:04.393Z,9.1
2018-11-03T11:59:06.878Z,9.1
2018-11-03T12:04:09.276Z,9.2
2018-11-03T12:09:11.687Z,9.2
2018-11-03T12:14:14.182Z,9.2
2018-11-03T12:19:16.567Z,9.2
2018-11-03T12:24:19.011Z,9.2
2018-11-03T12:29:21.453Z,9.2
2018-11-03T12:34:23.888Z,9.2
2018-11-03T12:39:26.393Z,9.2
2018-11-03T12:44:28.777Z,9.2
2018-11-03T12:49:31.206Z,9.3
2018-11-03T12:54:33.729Z,9.2
2018-11-03T12:59:36.091Z,9.2
2018-11-03T13:04:38.539Z,9.2
2018-11-03T13:09:41.195Z,9.2
2018-11-03T13:14:43.432Z,9.2
2018-11-03T13:19:45.873Z,9.2
2018-11-03T13:24:48.341Z,9.2
2018-11-03T13:29:50.755Z,9.2
2018-11-03T13:34:53.213Z,9.2
2018-11-03T13:39:55.612Z,9.1
2018-11-03T13:44:58.062Z,9
2018-11-03T13:50:00.503Z,9
2018-11-03T13:55:02.968Z,8.9
2018-11-03T14:00:05.402Z,8.8
2018-11-03T14:05:07.819Z,8.8
2018-11-03T14:10:10.282Z,8.7
2018-11-03T14:15:12.731Z,8.7
2018-11-03T14:20:15.142Z,8.8
2018-11-03T14:25:17.590Z,8.8
2018-11-03T14:30:20.032Z,8.8
2018-11-03T14:35:22.461Z,8.8
2018-11-03T14:40:24.913Z,8.8
2018-11-03T14:45:27.460Z,8.7
2018-11-03T14:50:29.821Z,8.7
2018-11-03T14:55:32.210Z,8.6
2018-11-03T15:00:34.700Z,8.6
2018-11-03T15:05:37.133Z,8.6
2018-11-03T15:10:39.535Z,8.5
2018-11-03T15:15:42.089Z,8.5
2018-11-03T15:20:44.434Z,8.4
2018-11-03T15:25:46.945Z,8.4
2018-11-03T15:30:49.311Z,8.4
2018-11-03T15:35:51.740Z,8.3
2018-11-03T15:40:54.255Z,8.3
2018-11-03T15:45:56.623Z,8.3
2018-11-03T15:50:59.053Z,8.3
2018-11-03T15:56:01.509Z,8.2
2018-11-03T16:01:03.980Z,8.2
2018-11-03T16:06:06.406Z,8.2
2018-11-03T16:11:08.820Z,8.2
2018-11-03T16:16:11.252Z,8.2
2018-11-03T16:21:13.760Z,8.2
2018-11-03T16:26:16.160Z,8.2
2018-11-03T16:31:18.582Z,8.2
2018-11-03T16:36:21.047Z,8.2
2018-11-03T16:41:23.474Z,8.2
2018-11-03T16:46:25.891Z,8.2
2018-11-03T16:51:28.353Z,8.2
2018-11-03T16:56:30.793Z,8.1
2018-11-03T17:01:33.222Z,8.1
2018-11-03T17:06:35.697Z,8.1
2018-11-03T17:11:38.101Z,8.1
2018-11-03T17:16:40.538Z,8.1
2018-11-03T17:21:43.011Z,8.1
2018-11-03T17:26:45.429Z,8.1
2018-11-03T17:31:47.935Z,8.1
2018-11-03T17:36:50.307Z,8.1
2018-11-03T17:41:52.733Z,8.1
2018-11-03T17:46:55.166Z,8.1
2018-11-03T17:51:57.662Z,8.1
2018-11-03T17:57:00.083Z,8.1
2018-11-03T18:02:02.536Z,8.1
2018-11-03T18:07:04.959Z,8.1
2018-11-03T18:12:07.387Z,8.1
2018-11-03T18:17:09.825Z,8.1
2018-11-03T18:22:12.253Z,8.1
2018-11-03T18:27:14.846Z,8.1
2018-11-03T18:32:17.147Z,8.1
2018-11-03T18:37:19.578Z,8.1
2018-11-03T18:42:22.018Z,8
2018-11-03T18:47:24.472Z,8.1
2018-11-03T18:52:26.899Z,8.1
2018-11-03T18:57:29.362Z,8.1
2018-11-03T19:02:31.920Z,8
2018-11-03T19:07:34.215Z,8.1
2018-11-03T19:12:36.710Z,8.1
2018-11-03T19:17:39.111Z,8.1
2018-11-03T19:22:41.563Z,8.1
2018-11-03T19:27:43.972Z,8
2018-11-03T19:32:46.419Z,8
2018-11-03T19:37:48.930Z,8.1
2018-11-03T19:42:51.310Z,8.1
2018-11-03T19:47:53.745Z,8.1
2018-11-03T19:52:56.172Z,8
2018-11-03T19:57:58.708Z,8.1
2018-11-03T20:03:01.173Z,8
2018-11-03T20:08:03.520Z,8
2018-11-03T20:13:05.958Z,8
2018-11-03T20:18:08.519Z,8.1
2018-11-03T20:23:10.812Z,8
2018-11-03T20:28:13.265Z,8
2018-11-03T20:33:15.701Z,8
2018-11-03T20:38:18.151Z,8.1
2018-11-03T20:43:20.691Z,8
2018-11-03T20:48:23.026Z,8
2018-11-03T20:53:25.450Z,8.1
2018-11-03T20:58:27.907Z,8
2018-11-03T21:03:30.600Z,8.1
2018-11-03T21:08:32.782Z,8
2018-11-03T21:13:35.215Z,8
2018-11-03T21:18:37.732Z,8
2018-11-03T21:23:40.120Z,8.1
2018-11-03T21:28:42.532Z,8
2018-11-03T21:33:45.078Z,8
2018-11-03T21:38:47.500Z,8
2018-11-03T21:43:49.862Z,8
2018-11-03T21:48:52.299Z,8.1
2018-11-03T21:53:54.731Z,8.1
2018-11-03T21:58:57.178Z,8.1
2018-11-03T22:03:59.664Z,8.1
2018-11-03T22:09:02.060Z,8.1
2018-11-03T22:14:04.498Z,8.1
2018-11-03T22:19:06.937Z,8.1
2018-11-03T22:24:09.418Z,8.1
2018-11-03T22:29:11.851Z,8.1
2018-11-03T22:34:14.251Z,8.1
2018-11-03T22:39:16.697Z,8.2
2018-11-03T22:44:19.177Z,8.2
2018-11-03T22:49:21.574Z,8.1
2018-11-03T22:54:24.024Z,8
2018-11-03T22:59:26.569Z,7.9
2018-11-03T23:04:28.888Z,7.8
2018-11-03T23:09:31.391Z,7.8
2018-11-03T23:14:33.775Z,7.7
2018-11-03T23:19:36.206Z,7.7
2018-11-03T23:24:38.651Z,7.8
2018-11-03T23:29:41.232Z,7.9
2018-11-03T23:34:43.578Z,7.9
2018-11-03T23:39:45.967Z,7.9
2018-11-03T23:44:48.475Z,8
2018-11-03T23:49:50.888Z,8
2018-11-03T23:54:53.291Z,8.1
2018-11-03T23:59:55.849Z,8.1
